sensor_id;sensor_type;location;lat;lon;timestamp;pressure;altitude;pressure_sealevel;temperature
5571;BMP180;2808;51.240;6.794;2023-03-12T00:00:16;100720.00;;;2.50
5571;BMP180;2808;51.240;6.794;2023-03-12T00:02:44;100714.00;;;2.50
5571;BMP180;2808;51.240;6.794;2023-03-12T00:05:11;100725.00;;;2.60
5571;BMP180;2808;51.240;6.794;2023-03-12T00:07:42;100727.00;;;2.60
5571;BMP180;2808;51.240;6.794;2023-03-12T00:10:11;100718.00;;;2.60
5571;BMP180;2808;51.240;6.794;2023-03-12T00:12:39;100725.00;;;2.60
5571;BMP180;2808;51.240;6.794;2023-03-12T00:15:08;100716.00;;;2.60
5571;BMP180;2808;51.240;6.794;2023-03-12T00:17:35;100711.00;;;2.60
5571;BMP180;2808;51.240;6.794;2023-03-12T00:20:04;100723.00;;;2.50
5571;BMP180;2808;51.240;6.794;2023-03-12T00:22:32;100718.00;;;2.60
5571;BMP180;2808;51.240;6.794;2023-03-12T00:25:01;100711.00;;;2.60
5571;BMP180;2808;51.240;6.794;2023-03-12T00:27:29;100703.00;;;2.60
5571;BMP180;2808;51.240;6.794;2023-03-12T00:29:56;100722.00;;;2.60
5571;BMP180;2808;51.240;6.794;2023-03-12T00:32:25;100706.00;;;2.60
5571;BMP180;2808;51.240;6.794;2023-03-12T00:34:54;100714.00;;;2.60
5571;BMP180;2808;51.240;6.794;2023-03-12T00:37:22;100701.00;;;2.60
5571;BMP180;2808;51.240;6.794;2023-03-12T00:39:49;100702.00;;;2.60
5571;BMP180;2808;51.240;6.794;2023-03-12T00:42:19;100697.00;;;2.70
5571;BMP180;2808;51.240;6.794;2023-03-12T00:44:46;100697.00;;;2.80
5571;BMP180;2808;51.240;6.794;2023-03-12T00:47:14;100695.00;;;2.70
5571;BMP180;2808;51.240;6.794;2023-03-12T00:49:41;100691.00;;;2.70
5571;BMP180;2808;51.240;6.794;2023-03-12T00:52:10;100686.00;;;2.80
5571;BMP180;2808;51.240;6.794;2023-03-12T00:54:37;100681.00;;;2.80
5571;BMP180;2808;51.240;6.794;2023-03-12T00:57:05;100683.00;;;2.80
5571;BMP180;2808;51.240;6.794;2023-03-12T00:59:34;100672.00;;;2.80
5571;BMP180;2808;51.240;6.794;2023-03-12T01:02:05;100674.00;;;2.80
5571;BMP180;2808;51.240;6.794;2023-03-12T01:04:32;100664.00;;;2.80
5571;BMP180;2808;51.240;6.794;2023-03-12T01:07:00;100659.00;;;2.80
5571;BMP180;2808;51.240;6.794;2023-03-12T01:09:30;100665.00;;;2.80
5571;BMP180;2808;51.240;6.794;2023-03-12T01:11:58;100664.00;;;2.80
5571;BMP180;2808;51.240;6.794;2023-03-12T01:14:25;100668.00;;;2.80
5571;BMP180;2808;51.240;6.794;2023-03-12T01:16:54;100666.00;;;2.80
5571;BMP180;2808;51.240;6.794;2023-03-12T01:19:22;100665.00;;;2.80
5571;BMP180;2808;51.240;6.794;2023-03-12T01:21:49;100662.00;;;2.90
5571;BMP180;2808;51.240;6.794;2023-03-12T01:24:17;100655.00;;;2.90
5571;BMP180;2808;51.240;6.794;2023-03-12T01:26:44;100649.00;;;2.90
5571;BMP180;2808;51.240;6.794;2023-03-12T01:29:12;100650.00;;;2.90
5571;BMP180;2808;51.240;6.794;2023-03-12T01:31:39;100645.00;;;2.90
5571;BMP180;2808;51.240;6.794;2023-03-12T01:34:10;100647.00;;;2.90
5571;BMP180;2808;51.240;6.794;2023-03-12T01:36:38;100653.00;;;2.80
5571;BMP180;2808;51.240;6.794;2023-03-12T01:39:05;100650.00;;;2.90
5571;BMP180;2808;51.240;6.794;2023-03-12T01:41:33;100644.00;;;2.90
5571;BMP180;2808;51.240;6.794;2023-03-12T01:44:01;100632.00;;;2.80
5571;BMP180;2808;51.240;6.794;2023-03-12T01:46:35;100629.00;;;2.80
5571;BMP180;2808;51.240;6.794;2023-03-12T01:49:08;100628.00;;;2.90
5571;BMP180;2808;51.240;6.794;2023-03-12T01:51:39;100622.00;;;2.90
5571;BMP180;2808;51.240;6.794;2023-03-12T01:54:12;100624.00;;;2.80
5571;BMP180;2808;51.240;6.794;2023-03-12T01:56:42;100626.00;;;2.90
5571;BMP180;2808;51.240;6.794;2023-03-12T01:59:13;100618.00;;;2.80
5571;BMP180;2808;51.240;6.794;2023-03-12T02:01:42;100626.00;;;2.80
5571;BMP180;2808;51.240;6.794;2023-03-12T02:04:15;100627.00;;;2.80
5571;BMP180;2808;51.240;6.794;2023-03-12T02:06:47;100628.00;;;2.80
5571;BMP180;2808;51.240;6.794;2023-03-12T02:09:18;100625.00;;;2.80
5571;BMP180;2808;51.240;6.794;2023-03-12T02:11:46;100625.00;;;2.80
5571;BMP180;2808;51.240;6.794;2023-03-12T02:14:14;100617.00;;;2.80
5571;BMP180;2808;51.240;6.794;2023-03-12T02:16:42;100598.00;;;2.80
5571;BMP180;2808;51.240;6.794;2023-03-12T02:19:20;100607.00;;;2.80
5571;BMP180;2808;51.240;6.794;2023-03-12T02:21:49;100592.00;;;2.80
5571;BMP180;2808;51.240;6.794;2023-03-12T02:24:24;100595.00;;;2.80
5571;BMP180;2808;51.240;6.794;2023-03-12T02:26:56;100607.00;;;2.80
5571;BMP180;2808;51.240;6.794;2023-03-12T02:29:23;100601.00;;;2.80
5571;BMP180;2808;51.240;6.794;2023-03-12T02:31:54;100599.00;;;2.80
5571;BMP180;2808;51.240;6.794;2023-03-12T02:34:22;100604.00;;;2.80
5571;BMP180;2808;51.240;6.794;2023-03-12T02:36:50;100603.00;;;2.80
5571;BMP180;2808;51.240;6.794;2023-03-12T02:39:18;100608.00;;;2.80
5571;BMP180;2808;51.240;6.794;2023-03-12T02:41:49;100604.00;;;2.80
5571;BMP180;2808;51.240;6.794;2023-03-12T02:44:22;100609.00;;;2.80
5571;BMP180;2808;51.240;6.794;2023-03-12T02:46:52;100607.00;;;2.80
5571;BMP180;2808;51.240;6.794;2023-03-12T02:52:22;100586.00;;;2.80
5571;BMP180;2808;51.240;6.794;2023-03-12T02:54:50;100579.00;;;2.80
5571;BMP180;2808;51.240;6.794;2023-03-12T02:57:17;100579.00;;;2.90
5571;BMP180;2808;51.240;6.794;2023-03-12T02:59:46;100571.00;;;2.90
5571;BMP180;2808;51.240;6.794;2023-03-12T03:02:16;100574.00;;;2.90
5571;BMP180;2808;51.240;6.794;2023-03-12T03:04:44;100565.00;;;2.90
5571;BMP180;2808;51.240;6.794;2023-03-12T03:07:12;100566.00;;;2.80
5571;BMP180;2808;51.240;6.794;2023-03-12T03:09:40;100567.00;;;2.80
5571;BMP180;2808;51.240;6.794;2023-03-12T03:12:08;100567.00;;;2.80
5571;BMP180;2808;51.240;6.794;2023-03-12T03:14:35;100569.00;;;2.80
5571;BMP180;2808;51.240;6.794;2023-03-12T03:17:04;100559.00;;;2.80
5571;BMP180;2808;51.240;6.794;2023-03-12T03:19:32;100555.00;;;2.80
5571;BMP180;2808;51.240;6.794;2023-03-12T03:21:59;100554.00;;;2.80
5571;BMP180;2808;51.240;6.794;2023-03-12T03:24:27;100557.00;;;2.80
5571;BMP180;2808;51.240;6.794;2023-03-12T03:26:54;100544.00;;;2.80
5571;BMP180;2808;51.240;6.794;2023-03-12T03:29:22;100543.00;;;2.80
5571;BMP180;2808;51.240;6.794;2023-03-12T03:31:49;100543.00;;;2.80
5571;BMP180;2808;51.240;6.794;2023-03-12T03:34:18;100549.00;;;2.80
5571;BMP180;2808;51.240;6.794;2023-03-12T03:36:46;100555.00;;;2.80
5571;BMP180;2808;51.240;6.794;2023-03-12T03:39:16;100550.00;;;2.80
5571;BMP180;2808;51.240;6.794;2023-03-12T03:41:44;100543.00;;;2.80
5571;BMP180;2808;51.240;6.794;2023-03-12T03:44:12;100548.00;;;2.80
5571;BMP180;2808;51.240;6.794;2023-03-12T03:46:40;100543.00;;;2.80
5571;BMP180;2808;51.240;6.794;2023-03-12T03:49:07;100551.00;;;2.80
5571;BMP180;2808;51.240;6.794;2023-03-12T03:51:36;100546.00;;;2.80
5571;BMP180;2808;51.240;6.794;2023-03-12T03:54:04;100552.00;;;2.90
5571;BMP180;2808;51.240;6.794;2023-03-12T03:56:31;100553.00;;;2.90
5571;BMP180;2808;51.240;6.794;2023-03-12T03:58:59;100544.00;;;2.90
5571;BMP180;2808;51.240;6.794;2023-03-12T04:01:27;100542.00;;;3.00
5571;BMP180;2808;51.240;6.794;2023-03-12T04:03:56;100550.00;;;3.00
5571;BMP180;2808;51.240;6.794;2023-03-12T04:06:23;100549.00;;;3.00
5571;BMP180;2808;51.240;6.794;2023-03-12T04:08:55;100544.00;;;3.00
5571;BMP180;2808;51.240;6.794;2023-03-12T04:11:23;100544.00;;;3.00
5571;BMP180;2808;51.240;6.794;2023-03-12T04:13:50;100551.00;;;3.00
5571;BMP180;2808;51.240;6.794;2023-03-12T04:16:18;100533.00;;;3.00
5571;BMP180;2808;51.240;6.794;2023-03-12T04:18:45;100547.00;;;3.00
5571;BMP180;2808;51.240;6.794;2023-03-12T04:21:13;100540.00;;;3.00
5571;BMP180;2808;51.240;6.794;2023-03-12T04:23:41;100540.00;;;3.00
5571;BMP180;2808;51.240;6.794;2023-03-12T04:26:10;100535.00;;;3.10
5571;BMP180;2808;51.240;6.794;2023-03-12T04:28:38;100535.00;;;3.10
5571;BMP180;2808;51.240;6.794;2023-03-12T04:31:07;100527.00;;;3.10
5571;BMP180;2808;51.240;6.794;2023-03-12T04:33:37;100530.00;;;3.10
5571;BMP180;2808;51.240;6.794;2023-03-12T04:36:05;100522.00;;;3.10
5571;BMP180;2808;51.240;6.794;2023-03-12T04:38:33;100529.00;;;3.10
5571;BMP180;2808;51.240;6.794;2023-03-12T04:41:02;100527.00;;;3.10
5571;BMP180;2808;51.240;6.794;2023-03-12T04:43:32;100521.00;;;3.10
5571;BMP180;2808;51.240;6.794;2023-03-12T04:46:00;100526.00;;;3.10
5571;BMP180;2808;51.240;6.794;2023-03-12T04:48:27;100523.00;;;3.20
5571;BMP180;2808;51.240;6.794;2023-03-12T04:50:55;100520.00;;;3.20
5571;BMP180;2808;51.240;6.794;2023-03-12T04:53:23;100516.00;;;3.20
5571;BMP180;2808;51.240;6.794;2023-03-12T04:55:50;100522.00;;;3.30
5571;BMP180;2808;51.240;6.794;2023-03-12T04:58:19;100510.00;;;3.30
5571;BMP180;2808;51.240;6.794;2023-03-12T05:00:49;100505.00;;;3.30
5571;BMP180;2808;51.240;6.794;2023-03-12T05:03:20;100507.00;;;3.30
5571;BMP180;2808;51.240;6.794;2023-03-12T05:05:47;100508.00;;;3.30
5571;BMP180;2808;51.240;6.794;2023-03-12T05:08:14;100499.00;;;3.30
5571;BMP180;2808;51.240;6.794;2023-03-12T05:10:42;100491.00;;;3.40
5571;BMP180;2808;51.240;6.794;2023-03-12T05:13:14;100484.00;;;3.40
5571;BMP180;2808;51.240;6.794;2023-03-12T05:15:43;100485.00;;;3.40
5571;BMP180;2808;51.240;6.794;2023-03-12T05:18:12;100486.00;;;3.30
5571;BMP180;2808;51.240;6.794;2023-03-12T05:20:40;100466.00;;;3.30
5571;BMP180;2808;51.240;6.794;2023-03-12T05:23:07;100468.00;;;3.20
5571;BMP180;2808;51.240;6.794;2023-03-12T05:25:38;100457.00;;;3.10
5571;BMP180;2808;51.240;6.794;2023-03-12T05:28:06;100442.00;;;3.10
5571;BMP180;2808;51.240;6.794;2023-03-12T05:30:38;100461.00;;;3.10
5571;BMP180;2808;51.240;6.794;2023-03-12T05:33:06;100453.00;;;3.10
5571;BMP180;2808;51.240;6.794;2023-03-12T05:35:34;100460.00;;;3.10
5571;BMP180;2808;51.240;6.794;2023-03-12T05:38:02;100456.00;;;3.10
5571;BMP180;2808;51.240;6.794;2023-03-12T05:40:30;100450.00;;;3.10
5571;BMP180;2808;51.240;6.794;2023-03-12T05:42:57;100455.00;;;3.00
5571;BMP180;2808;51.240;6.794;2023-03-12T05:45:24;100446.00;;;3.10
5571;BMP180;2808;51.240;6.794;2023-03-12T05:47:52;100443.00;;;2.90
5571;BMP180;2808;51.240;6.794;2023-03-12T05:50:19;100434.00;;;2.90
5571;BMP180;2808;51.240;6.794;2023-03-12T05:52:48;100447.00;;;2.90
5571;BMP180;2808;51.240;6.794;2023-03-12T05:55:16;100433.00;;;2.90
5571;BMP180;2808;51.240;6.794;2023-03-12T05:57:43;100426.00;;;2.90
5571;BMP180;2808;51.240;6.794;2023-03-12T06:00:13;100422.00;;;3.00
5571;BMP180;2808;51.240;6.794;2023-03-12T06:02:41;100415.00;;;3.00
5571;BMP180;2808;51.240;6.794;2023-03-12T06:05:09;100404.00;;;2.90
5571;BMP180;2808;51.240;6.794;2023-03-12T06:07:37;100401.00;;;3.00
5571;BMP180;2808;51.240;6.794;2023-03-12T06:10:08;100390.00;;;3.00
5571;BMP180;2808;51.240;6.794;2023-03-12T06:12:36;100405.00;;;3.10
5571;BMP180;2808;51.240;6.794;2023-03-12T06:15:04;100408.00;;;3.00
5571;BMP180;2808;51.240;6.794;2023-03-12T06:17:32;100408.00;;;3.00
5571;BMP180;2808;51.240;6.794;2023-03-12T06:20:03;100418.00;;;3.00
5571;BMP180;2808;51.240;6.794;2023-03-12T06:22:30;100417.00;;;3.00
5571;BMP180;2808;51.240;6.794;2023-03-12T06:24:58;100414.00;;;3.00
5571;BMP180;2808;51.240;6.794;2023-03-12T06:27:27;100417.00;;;3.00
5571;BMP180;2808;51.240;6.794;2023-03-12T06:29:58;100420.00;;;2.90
5571;BMP180;2808;51.240;6.794;2023-03-12T06:32:27;100407.00;;;2.90
5571;BMP180;2808;51.240;6.794;2023-03-12T06:34:55;100416.00;;;2.90
5571;BMP180;2808;51.240;6.794;2023-03-12T06:37:22;100416.00;;;2.80
5571;BMP180;2808;51.240;6.794;2023-03-12T06:39:50;100424.00;;;2.80
5571;BMP180;2808;51.240;6.794;2023-03-12T06:42:18;100417.00;;;2.80
5571;BMP180;2808;51.240;6.794;2023-03-12T06:44:47;100412.00;;;2.80
5571;BMP180;2808;51.240;6.794;2023-03-12T06:47:14;100413.00;;;2.90
5571;BMP180;2808;51.240;6.794;2023-03-12T06:49:42;100423.00;;;2.80
5571;BMP180;2808;51.240;6.794;2023-03-12T06:52:09;100417.00;;;2.80
5571;BMP180;2808;51.240;6.794;2023-03-12T06:54:37;100426.00;;;2.80
5571;BMP180;2808;51.240;6.794;2023-03-12T06:57:04;100432.00;;;2.80
5571;BMP180;2808;51.240;6.794;2023-03-12T06:59:32;100429.00;;;2.80
5571;BMP180;2808;51.240;6.794;2023-03-12T07:02:00;100420.00;;;2.80
5571;BMP180;2808;51.240;6.794;2023-03-12T07:04:28;100418.00;;;2.90
5571;BMP180;2808;51.240;6.794;2023-03-12T07:06:55;100415.00;;;2.90
5571;BMP180;2808;51.240;6.794;2023-03-12T07:09:23;100419.00;;;2.90
5571;BMP180;2808;51.240;6.794;2023-03-12T07:11:50;100433.00;;;3.00
5571;BMP180;2808;51.240;6.794;2023-03-12T07:14:18;100426.00;;;3.00
5571;BMP180;2808;51.240;6.794;2023-03-12T07:16:46;100418.00;;;2.90
5571;BMP180;2808;51.240;6.794;2023-03-12T07:19:18;100419.00;;;3.00
5571;BMP180;2808;51.240;6.794;2023-03-12T07:21:45;100398.00;;;3.00
5571;BMP180;2808;51.240;6.794;2023-03-12T07:24:13;100395.00;;;3.10
5571;BMP180;2808;51.240;6.794;2023-03-12T07:26:40;100398.00;;;3.10
5571;BMP180;2808;51.240;6.794;2023-03-12T07:29:08;100397.00;;;3.20
5571;BMP180;2808;51.240;6.794;2023-03-12T07:31:36;100394.00;;;3.20
5571;BMP180;2808;51.240;6.794;2023-03-12T07:34:03;100406.00;;;3.20
5571;BMP180;2808;51.240;6.794;2023-03-12T07:36:32;100394.00;;;3.30
5571;BMP180;2808;51.240;6.794;2023-03-12T07:39:00;100403.00;;;3.30
5571;BMP180;2808;51.240;6.794;2023-03-12T07:41:29;100402.00;;;3.40
5571;BMP180;2808;51.240;6.794;2023-03-12T07:43:56;100401.00;;;3.30
5571;BMP180;2808;51.240;6.794;2023-03-12T07:46:24;100404.00;;;3.30
5571;BMP180;2808;51.240;6.794;2023-03-12T07:48:51;100401.00;;;3.30
5571;BMP180;2808;51.240;6.794;2023-03-12T07:51:19;100401.00;;;3.30
5571;BMP180;2808;51.240;6.794;2023-03-12T07:53:47;100396.00;;;3.30
5571;BMP180;2808;51.240;6.794;2023-03-12T07:56:15;100396.00;;;3.40
5571;BMP180;2808;51.240;6.794;2023-03-12T07:58:42;100398.00;;;3.40
5571;BMP180;2808;51.240;6.794;2023-03-12T08:01:10;100397.00;;;3.40
5571;BMP180;2808;51.240;6.794;2023-03-12T08:03:37;100403.00;;;3.50
5571;BMP180;2808;51.240;6.794;2023-03-12T08:06:05;100404.00;;;3.60
5571;BMP180;2808;51.240;6.794;2023-03-12T08:08:33;100410.00;;;3.70
5571;BMP180;2808;51.240;6.794;2023-03-12T08:11:03;100407.00;;;3.70
5571;BMP180;2808;51.240;6.794;2023-03-12T08:13:31;100404.00;;;3.70
5571;BMP180;2808;51.240;6.794;2023-03-12T08:15:59;100394.00;;;3.70
5571;BMP180;2808;51.240;6.794;2023-03-12T08:18:26;100404.00;;;3.60
5571;BMP180;2808;51.240;6.794;2023-03-12T08:20:54;100403.00;;;3.60
5571;BMP180;2808;51.240;6.794;2023-03-12T08:23:22;100393.00;;;3.70
5571;BMP180;2808;51.240;6.794;2023-03-12T08:25:50;100405.00;;;3.70
5571;BMP180;2808;51.240;6.794;2023-03-12T08:28:19;100402.00;;;3.90
5571;BMP180;2808;51.240;6.794;2023-03-12T08:30:48;100407.00;;;3.90
5571;BMP180;2808;51.240;6.794;2023-03-12T08:33:16;100406.00;;;3.90
5571;BMP180;2808;51.240;6.794;2023-03-12T08:35:44;100397.00;;;4.00
5571;BMP180;2808;51.240;6.794;2023-03-12T08:38:12;100391.00;;;4.10
5571;BMP180;2808;51.240;6.794;2023-03-12T08:40:40;100399.00;;;4.10
5571;BMP180;2808;51.240;6.794;2023-03-12T08:43:08;100388.00;;;4.20
5571;BMP180;2808;51.240;6.794;2023-03-12T08:45:37;100394.00;;;4.30
5571;BMP180;2808;51.240;6.794;2023-03-12T08:48:05;100390.00;;;4.30
5571;BMP180;2808;51.240;6.794;2023-03-12T08:50:33;100387.00;;;4.10
5571;BMP180;2808;51.240;6.794;2023-03-12T08:53:00;100374.00;;;4.10
5571;BMP180;2808;51.240;6.794;2023-03-12T08:55:28;100380.00;;;4.10
5571;BMP180;2808;51.240;6.794;2023-03-12T08:57:55;100378.00;;;4.10
5571;BMP180;2808;51.240;6.794;2023-03-12T09:00:23;100385.00;;;4.20
5571;BMP180;2808;51.240;6.794;2023-03-12T09:02:52;100387.00;;;4.20
5571;BMP180;2808;51.240;6.794;2023-03-12T09:05:23;100383.00;;;4.20
5571;BMP180;2808;51.240;6.794;2023-03-12T09:07:51;100371.00;;;4.20
5571;BMP180;2808;51.240;6.794;2023-03-12T09:10:18;100380.00;;;4.30
5571;BMP180;2808;51.240;6.794;2023-03-12T09:12:46;100391.00;;;4.30
5571;BMP180;2808;51.240;6.794;2023-03-12T09:15:13;100389.00;;;4.20
5571;BMP180;2808;51.240;6.794;2023-03-12T09:17:41;100396.00;;;4.20
5571;BMP180;2808;51.240;6.794;2023-03-12T09:20:11;100389.00;;;4.20
5571;BMP180;2808;51.240;6.794;2023-03-12T09:22:39;100391.00;;;4.20
5571;BMP180;2808;51.240;6.794;2023-03-12T09:25:11;100395.00;;;4.10
5571;BMP180;2808;51.240;6.794;2023-03-12T09:27:44;100398.00;;;4.10
5571;BMP180;2808;51.240;6.794;2023-03-12T09:30:14;100392.00;;;4.20
5571;BMP180;2808;51.240;6.794;2023-03-12T09:32:41;100383.00;;;4.10
5571;BMP180;2808;51.240;6.794;2023-03-12T09:35:15;100383.00;;;4.10
5571;BMP180;2808;51.240;6.794;2023-03-12T09:37:42;100391.00;;;4.00
5571;BMP180;2808;51.240;6.794;2023-03-12T09:40:16;100411.00;;;4.10
5571;BMP180;2808;51.240;6.794;2023-03-12T09:42:51;100392.00;;;4.20
5571;BMP180;2808;51.240;6.794;2023-03-12T09:45:21;100393.00;;;4.20
5571;BMP180;2808;51.240;6.794;2023-03-12T09:47:51;100394.00;;;4.20
5571;BMP180;2808;51.240;6.794;2023-03-12T09:50:24;100404.00;;;4.20
5571;BMP180;2808;51.240;6.794;2023-03-12T09:52:57;100398.00;;;4.30
5571;BMP180;2808;51.240;6.794;2023-03-12T09:55:27;100420.00;;;4.30
5571;BMP180;2808;51.240;6.794;2023-03-12T09:58:13;100421.00;;;4.30
5571;BMP180;2808;51.240;6.794;2023-03-12T10:00:43;100421.00;;;4.40
5571;BMP180;2808;51.240;6.794;2023-03-12T10:03:53;100406.00;;;4.40
5571;BMP180;2808;51.240;6.794;2023-03-12T10:06:37;100407.00;;;4.40
5571;BMP180;2808;51.240;6.794;2023-03-12T10:09:18;100400.00;;;4.50
5571;BMP180;2808;51.240;6.794;2023-03-12T10:12:03;100409.00;;;4.60
5571;BMP180;2808;51.240;6.794;2023-03-12T10:14:47;100407.00;;;4.60
5571;BMP180;2808;51.240;6.794;2023-03-12T10:17:34;100405.00;;;4.70
5571;BMP180;2808;51.240;6.794;2023-03-12T10:20:26;100412.00;;;4.80
5571;BMP180;2808;51.240;6.794;2023-03-12T10:23:05;100416.00;;;4.90
5571;BMP180;2808;51.240;6.794;2023-03-12T10:25:39;100413.00;;;4.90
5571;BMP180;2808;51.240;6.794;2023-03-12T10:28:13;100412.00;;;5.00
5571;BMP180;2808;51.240;6.794;2023-03-12T10:30:47;100417.00;;;5.00
5571;BMP180;2808;51.240;6.794;2023-03-12T10:33:18;100421.00;;;5.10
5571;BMP180;2808;51.240;6.794;2023-03-12T10:35:46;100416.00;;;5.10
5571;BMP180;2808;51.240;6.794;2023-03-12T10:38:18;100409.00;;;5.10
5571;BMP180;2808;51.240;6.794;2023-03-12T10:40:48;100427.00;;;5.20
5571;BMP180;2808;51.240;6.794;2023-03-12T10:43:15;100426.00;;;5.30
5571;BMP180;2808;51.240;6.794;2023-03-12T10:46:32;100434.00;;;5.40
5571;BMP180;2808;51.240;6.794;2023-03-12T10:48:48;100426.00;;;5.50
5571;BMP180;2808;51.240;6.794;2023-03-12T10:51:16;100424.00;;;5.60
5571;BMP180;2808;51.240;6.794;2023-03-12T10:53:47;100431.00;;;5.60
5571;BMP180;2808;51.240;6.794;2023-03-12T10:56:19;100428.00;;;5.60
5571;BMP180;2808;51.240;6.794;2023-03-12T10:58:51;100428.00;;;5.60
5571;BMP180;2808;51.240;6.794;2023-03-12T11:01:26;100422.00;;;5.60
5571;BMP180;2808;51.240;6.794;2023-03-12T11:04:13;100431.00;;;5.60
5571;BMP180;2808;51.240;6.794;2023-03-12T11:06:42;100428.00;;;5.60
5571;BMP180;2808;51.240;6.794;2023-03-12T11:09:29;100435.00;;;5.80
5571;BMP180;2808;51.240;6.794;2023-03-12T11:11:57;100424.00;;;5.90
5571;BMP180;2808;51.240;6.794;2023-03-12T11:14:26;100423.00;;;5.90
5571;BMP180;2808;51.240;6.794;2023-03-12T11:17:20;100422.00;;;6.10
5571;BMP180;2808;51.240;6.794;2023-03-12T11:19:48;100426.00;;;6.10
5571;BMP180;2808;51.240;6.794;2023-03-12T11:22:37;100416.00;;;6.20
5571;BMP180;2808;51.240;6.794;2023-03-12T11:25:18;100418.00;;;6.30
5571;BMP180;2808;51.240;6.794;2023-03-12T11:27:52;100410.00;;;6.20
5571;BMP180;2808;51.240;6.794;2023-03-12T11:30:23;100419.00;;;6.20
5571;BMP180;2808;51.240;6.794;2023-03-12T11:32:52;100409.00;;;6.30
5571;BMP180;2808;51.240;6.794;2023-03-12T11:35:29;100407.00;;;6.40
5571;BMP180;2808;51.240;6.794;2023-03-12T11:38:04;100407.00;;;6.50
5571;BMP180;2808;51.240;6.794;2023-03-12T11:40:56;100396.00;;;6.50
5571;BMP180;2808;51.240;6.794;2023-03-12T11:43:47;100409.00;;;6.60
5571;BMP180;2808;51.240;6.794;2023-03-12T11:46:29;100415.00;;;6.60
5571;BMP180;2808;51.240;6.794;2023-03-12T11:49:07;100416.00;;;6.60
5571;BMP180;2808;51.240;6.794;2023-03-12T11:51:45;100411.00;;;6.60
5571;BMP180;2808;51.240;6.794;2023-03-12T11:57:25;100411.00;;;6.80
5571;BMP180;2808;51.240;6.794;2023-03-12T12:00:10;100411.00;;;6.80
5571;BMP180;2808;51.240;6.794;2023-03-12T12:05:59;100402.00;;;7.00
5571;BMP180;2808;51.240;6.794;2023-03-12T12:08:57;100402.00;;;7.10
5571;BMP180;2808;51.240;6.794;2023-03-12T12:11:36;100403.00;;;7.10
5571;BMP180;2808;51.240;6.794;2023-03-12T12:14:22;100400.00;;;7.20
5571;BMP180;2808;51.240;6.794;2023-03-12T12:17:13;100392.00;;;7.10
5571;BMP180;2808;51.240;6.794;2023-03-12T12:20:26;100392.00;;;7.20
5571;BMP180;2808;51.240;6.794;2023-03-12T12:23:07;100401.00;;;7.30
5571;BMP180;2808;51.240;6.794;2023-03-12T12:25:55;100408.00;;;7.30
5571;BMP180;2808;51.240;6.794;2023-03-12T12:28:43;100394.00;;;7.40
5571;BMP180;2808;51.240;6.794;2023-03-12T12:31:31;100399.00;;;7.50
5571;BMP180;2808;51.240;6.794;2023-03-12T12:34:29;100396.00;;;7.70
5571;BMP180;2808;51.240;6.794;2023-03-12T12:37:15;100383.00;;;7.80
5571;BMP180;2808;51.240;6.794;2023-03-12T12:39:49;100376.00;;;8.10
5571;BMP180;2808;51.240;6.794;2023-03-12T12:42:23;100377.00;;;8.20
5571;BMP180;2808;51.240;6.794;2023-03-12T12:44:53;100368.00;;;8.30
5571;BMP180;2808;51.240;6.794;2023-03-12T12:47:32;100372.00;;;8.30
5571;BMP180;2808;51.240;6.794;2023-03-12T12:50:04;100369.00;;;8.40
5571;BMP180;2808;51.240;6.794;2023-03-12T12:52:32;100368.00;;;8.60
5571;BMP180;2808;51.240;6.794;2023-03-12T12:55:05;100359.00;;;8.80
5571;BMP180;2808;51.240;6.794;2023-03-12T12:57:43;100344.00;;;9.00
5571;BMP180;2808;51.240;6.794;2023-03-12T13:00:20;100342.00;;;9.20
5571;BMP180;2808;51.240;6.794;2023-03-12T13:02:51;100337.00;;;9.50
5571;BMP180;2808;51.240;6.794;2023-03-12T13:05:21;100336.00;;;9.60
5571;BMP180;2808;51.240;6.794;2023-03-12T13:07:51;100325.00;;;9.60
5571;BMP180;2808;51.240;6.794;2023-03-12T13:10:40;100326.00;;;9.70
5571;BMP180;2808;51.240;6.794;2023-03-12T13:13:16;100322.00;;;9.80
5571;BMP180;2808;51.240;6.794;2023-03-12T13:15:45;100316.00;;;9.90
5571;BMP180;2808;51.240;6.794;2023-03-12T13:18:23;100319.00;;;9.90
5571;BMP180;2808;51.240;6.794;2023-03-12T13:21:11;100316.00;;;9.90
5571;BMP180;2808;51.240;6.794;2023-03-12T13:23:49;100311.00;;;10.00
5571;BMP180;2808;51.240;6.794;2023-03-12T13:26:22;100290.00;;;10.00
5571;BMP180;2808;51.240;6.794;2023-03-12T13:29:11;100295.00;;;10.00
5571;BMP180;2808;51.240;6.794;2023-03-12T13:31:41;100301.00;;;10.00
5571;BMP180;2808;51.240;6.794;2023-03-12T13:34:42;100302.00;;;10.10
5571;BMP180;2808;51.240;6.794;2023-03-12T13:37:28;100306.00;;;10.10
5571;BMP180;2808;51.240;6.794;2023-03-12T13:39:59;100294.00;;;10.20
5571;BMP180;2808;51.240;6.794;2023-03-12T13:42:38;100299.00;;;10.20
5571;BMP180;2808;51.240;6.794;2023-03-12T13:45:27;100296.00;;;10.30
5571;BMP180;2808;51.240;6.794;2023-03-12T13:47:59;100292.00;;;10.30
5571;BMP180;2808;51.240;6.794;2023-03-12T13:50:30;100291.00;;;10.30
5571;BMP180;2808;51.240;6.794;2023-03-12T13:53:03;100278.00;;;10.30
5571;BMP180;2808;51.240;6.794;2023-03-12T13:55:33;100286.00;;;10.30
5571;BMP180;2808;51.240;6.794;2023-03-12T13:58:07;100275.00;;;10.40
5571;BMP180;2808;51.240;6.794;2023-03-12T14:00:40;100274.00;;;10.60
5571;BMP180;2808;51.240;6.794;2023-03-12T14:03:14;100274.00;;;10.60
5571;BMP180;2808;51.240;6.794;2023-03-12T14:05:50;100271.00;;;10.70
5571;BMP180;2808;51.240;6.794;2023-03-12T14:08:37;100281.00;;;10.70
5571;BMP180;2808;51.240;6.794;2023-03-12T14:11:35;100275.00;;;10.60
5571;BMP180;2808;51.240;6.794;2023-03-12T14:17:15;100261.00;;;10.50
5571;BMP180;2808;51.240;6.794;2023-03-12T14:19:47;100265.00;;;10.60
5571;BMP180;2808;51.240;6.794;2023-03-12T14:22:17;100264.00;;;10.60
5571;BMP180;2808;51.240;6.794;2023-03-12T14:24:50;100274.00;;;10.70
5571;BMP180;2808;51.240;6.794;2023-03-12T14:27:23;100278.00;;;10.70
5571;BMP180;2808;51.240;6.794;2023-03-12T14:29:54;100273.00;;;10.80
5571;BMP180;2808;51.240;6.794;2023-03-12T14:32:29;100276.00;;;10.90
5571;BMP180;2808;51.240;6.794;2023-03-12T14:35:02;100279.00;;;10.90
5571;BMP180;2808;51.240;6.794;2023-03-12T14:37:38;100286.00;;;11.00
5571;BMP180;2808;51.240;6.794;2023-03-12T14:40:17;100285.00;;;11.00
5571;BMP180;2808;51.240;6.794;2023-03-12T14:42:45;100288.00;;;11.00
5571;BMP180;2808;51.240;6.794;2023-03-12T14:45:16;100284.00;;;11.00
5571;BMP180;2808;51.240;6.794;2023-03-12T14:47:45;100293.00;;;11.10
5571;BMP180;2808;51.240;6.794;2023-03-12T14:50:18;100300.00;;;11.20
5571;BMP180;2808;51.240;6.794;2023-03-12T14:52:47;100296.00;;;11.20
5571;BMP180;2808;51.240;6.794;2023-03-12T14:55:16;100302.00;;;11.20
5571;BMP180;2808;51.240;6.794;2023-03-12T14:57:45;100306.00;;;11.20
5571;BMP180;2808;51.240;6.794;2023-03-12T15:00:22;100300.00;;;11.10
5571;BMP180;2808;51.240;6.794;2023-03-12T15:02:52;100306.00;;;11.10
5571;BMP180;2808;51.240;6.794;2023-03-12T15:05:56;100314.00;;;11.20
5571;BMP180;2808;51.240;6.794;2023-03-12T15:08:16;100302.00;;;11.30
5571;BMP180;2808;51.240;6.794;2023-03-12T15:10:49;100311.00;;;11.30